sensor_id;sensor_type;location;lat;lon;timestamp;temperature;humidity
75321;DHT22;68337;52.196;5.660;2023-07-31T00:00:33;15.40;99.90
75321;DHT22;68337;52.196;5.660;2023-07-31T00:02:59;15.40;99.90
75321;DHT22;68337;52.196;5.660;2023-07-31T00:05:25;15.50;99.90
75321;DHT22;68337;52.196;5.660;2023-07-31T00:07:50;15.60;99.90
75321;DHT22;68337;52.196;5.660;2023-07-31T00:10:16;15.50;99.90
75321;DHT22;68337;52.196;5.660;2023-07-31T00:12:45;15.50;99.90
75321;DHT22;68337;52.196;5.660;2023-07-31T00:15:12;15.50;99.90
75321;DHT22;68337;52.196;5.660;2023-07-31T00:17:39;15.60;99.90
75321;DHT22;68337;52.196;5.660;2023-07-31T00:20:05;15.60;99.90
75321;DHT22;68337;52.196;5.660;2023-07-31T00:22:31;15.60;99.90
75321;DHT22;68337;52.196;5.660;2023-07-31T00:24:57;15.50;99.90
75321;DHT22;68337;52.196;5.660;2023-07-31T00:27:23;15.60;99.90
75321;DHT22;68337;52.196;5.660;2023-07-31T00:29:49;15.70;99.90
75321;DHT22;68337;52.196;5.660;2023-07-31T00:32:15;15.70;99.90
75321;DHT22;68337;52.196;5.660;2023-07-31T00:34:40;15.70;99.90
75321;DHT22;68337;52.196;5.660;2023-07-31T00:37:06;15.70;99.90
75321;DHT22;68337;52.196;5.660;2023-07-31T00:39:34;15.70;99.90
75321;DHT22;68337;52.196;5.660;2023-07-31T00:42:00;15.80;99.90
75321;DHT22;68337;52.196;5.660;2023-07-31T00:44:26;15.70;99.90
75321;DHT22;68337;52.196;5.660;2023-07-31T00:46:52;15.70;99.90
75321;DHT22;68337;52.196;5.660;2023-07-31T00:49:18;15.80;99.90
75321;DHT22;68337;52.196;5.660;2023-07-31T00:51:44;15.70;99.90
75321;DHT22;68337;52.196;5.660;2023-07-31T00:54:09;15.70;99.90
75321;DHT22;68337;52.196;5.660;2023-07-31T00:56:36;15.80;99.90
75321;DHT22;68337;52.196;5.660;2023-07-31T00:59:03;15.70;99.90
75321;DHT22;68337;52.196;5.660;2023-07-31T01:01:29;15.70;99.90
75321;DHT22;68337;52.196;5.660;2023-07-31T01:03:54;15.80;99.90
75321;DHT22;68337;52.196;5.660;2023-07-31T01:09:46;15.80;99.90
75321;DHT22;68337;52.196;5.660;2023-07-31T01:12:16;15.90;99.90
75321;DHT22;68337;52.196;5.660;2023-07-31T01:15:02;15.90;99.90
75321;DHT22;68337;52.196;5.660;2023-07-31T01:17:31;15.80;99.90
75321;DHT22;68337;52.196;5.660;2023-07-31T01:20:02;15.90;99.90
75321;DHT22;68337;52.196;5.660;2023-07-31T01:25:21;16.20;99.90
75321;DHT22;68337;52.196;5.660;2023-07-31T01:28:06;16.10;99.90
75321;DHT22;68337;52.196;5.660;2023-07-31T01:30:34;16.10;99.90
75321;DHT22;68337;52.196;5.660;2023-07-31T01:33:03;16.20;99.90
75321;DHT22;68337;52.196;5.660;2023-07-31T01:35:33;16.30;99.90
75321;DHT22;68337;52.196;5.660;2023-07-31T01:37:59;16.20;99.90
75321;DHT22;68337;52.196;5.660;2023-07-31T01:40:25;16.20;99.90
75321;DHT22;68337;52.196;5.660;2023-07-31T01:42:51;16.30;99.90
75321;DHT22;68337;52.196;5.660;2023-07-31T01:45:16;16.20;99.90
75321;DHT22;68337;52.196;5.660;2023-07-31T01:47:42;16.30;99.90
75321;DHT22;68337;52.196;5.660;2023-07-31T01:50:08;16.40;99.90
75321;DHT22;68337;52.196;5.660;2023-07-31T01:52:34;16.20;99.90
75321;DHT22;68337;52.196;5.660;2023-07-31T01:55:00;16.30;99.90
75321;DHT22;68337;52.196;5.660;2023-07-31T01:57:26;16.30;99.90
75321;DHT22;68337;52.196;5.660;2023-07-31T01:59:52;16.40;99.90
75321;DHT22;68337;52.196;5.660;2023-07-31T02:02:22;16.20;99.90
75321;DHT22;68337;52.196;5.660;2023-07-31T02:04:48;16.30;99.90
75321;DHT22;68337;52.196;5.660;2023-07-31T02:07:14;16.10;99.90
75321;DHT22;68337;52.196;5.660;2023-07-31T02:09:40;16.20;99.90
75321;DHT22;68337;52.196;5.660;2023-07-31T02:12:06;16.30;99.90
75321;DHT22;68337;52.196;5.660;2023-07-31T02:14:34;16.20;99.90
75321;DHT22;68337;52.196;5.660;2023-07-31T02:17:00;16.30;99.90
75321;DHT22;68337;52.196;5.660;2023-07-31T02:19:26;16.30;99.90
75321;DHT22;68337;52.196;5.660;2023-07-31T02:21:51;16.20;99.90
75321;DHT22;68337;52.196;5.660;2023-07-31T02:24:17;16.30;99.90
75321;DHT22;68337;52.196;5.660;2023-07-31T02:26:43;16.30;99.90
75321;DHT22;68337;52.196;5.660;2023-07-31T02:29:09;16.40;99.90
75321;DHT22;68337;52.196;5.660;2023-07-31T02:31:34;16.40;99.90
75321;DHT22;68337;52.196;5.660;2023-07-31T02:34:00;16.40;99.90
75321;DHT22;68337;52.196;5.660;2023-07-31T02:36:26;16.40;99.90
75321;DHT22;68337;52.196;5.660;2023-07-31T02:38:52;16.50;99.90
75321;DHT22;68337;52.196;5.660;2023-07-31T02:41:17;16.50;99.90
75321;DHT22;68337;52.196;5.660;2023-07-31T02:43:43;16.40;99.90
75321;DHT22;68337;52.196;5.660;2023-07-31T02:46:09;16.40;99.90
75321;DHT22;68337;52.196;5.660;2023-07-31T02:48:35;16.50;99.90
75321;DHT22;68337;52.196;5.660;2023-07-31T02:51:01;16.60;99.90
75321;DHT22;68337;52.196;5.660;2023-07-31T02:53:26;16.60;99.90
75321;DHT22;68337;52.196;5.660;2023-07-31T02:55:52;16.50;99.90
75321;DHT22;68337;52.196;5.660;2023-07-31T02:58:18;16.60;99.90
75321;DHT22;68337;52.196;5.660;2023-07-31T03:00:44;16.60;99.90
75321;DHT22;68337;52.196;5.660;2023-07-31T03:03:10;16.50;99.90
75321;DHT22;68337;52.196;5.660;2023-07-31T03:05:36;16.50;99.90
75321;DHT22;68337;52.196;5.660;2023-07-31T03:08:01;16.60;99.90
75321;DHT22;68337;52.196;5.660;2023-07-31T03:10:27;16.60;99.90
75321;DHT22;68337;52.196;5.660;2023-07-31T03:12:53;16.60;99.90
75321;DHT22;68337;52.196;5.660;2023-07-31T03:15:19;16.60;99.90
75321;DHT22;68337;52.196;5.660;2023-07-31T03:17:44;16.70;99.90
75321;DHT22;68337;52.196;5.660;2023-07-31T03:20:10;16.60;99.90
75321;DHT22;68337;52.196;5.660;2023-07-31T03:22:36;16.60;99.90
75321;DHT22;68337;52.196;5.660;2023-07-31T03:25:03;16.60;99.90
75321;DHT22;68337;52.196;5.660;2023-07-31T03:27:28;16.50;99.90
75321;DHT22;68337;52.196;5.660;2023-07-31T03:29:54;16.50;99.90
75321;DHT22;68337;52.196;5.660;2023-07-31T03:32:20;16.50;99.90
75321;DHT22;68337;52.196;5.660;2023-07-31T03:34:46;16.50;99.90
75321;DHT22;68337;52.196;5.660;2023-07-31T03:37:12;16.50;99.90
75321;DHT22;68337;52.196;5.660;2023-07-31T03:39:37;16.50;99.90
75321;DHT22;68337;52.196;5.660;2023-07-31T03:42:03;16.50;99.90
75321;DHT22;68337;52.196;5.660;2023-07-31T03:44:29;16.40;99.90
75321;DHT22;68337;52.196;5.660;2023-07-31T03:46:55;16.50;99.90
75321;DHT22;68337;52.196;5.660;2023-07-31T03:49:21;16.50;99.90
75321;DHT22;68337;52.196;5.660;2023-07-31T03:51:46;16.60;99.90
75321;DHT22;68337;52.196;5.660;2023-07-31T03:54:12;16.60;99.90
75321;DHT22;68337;52.196;5.660;2023-07-31T03:56:39;16.50;99.90
75321;DHT22;68337;52.196;5.660;2023-07-31T03:59:05;16.50;99.90
75321;DHT22;68337;52.196;5.660;2023-07-31T04:01:30;16.40;99.90
75321;DHT22;68337;52.196;5.660;2023-07-31T04:03:56;16.40;99.90
75321;DHT22;68337;52.196;5.660;2023-07-31T04:06:22;16.50;99.90
75321;DHT22;68337;52.196;5.660;2023-07-31T04:08:48;16.40;99.90
75321;DHT22;68337;52.196;5.660;2023-07-31T04:11:13;16.40;99.90
75321;DHT22;68337;52.196;5.660;2023-07-31T04:13:39;16.50;99.90
75321;DHT22;68337;52.196;5.660;2023-07-31T04:16:05;16.50;99.90
75321;DHT22;68337;52.196;5.660;2023-07-31T04:18:31;16.50;99.90
75321;DHT22;68337;52.196;5.660;2023-07-31T04:20:58;16.40;99.90
75321;DHT22;68337;52.196;5.660;2023-07-31T04:23:25;16.40;99.90
75321;DHT22;68337;52.196;5.660;2023-07-31T04:25:51;16.50;99.90
75321;DHT22;68337;52.196;5.660;2023-07-31T04:28:16;16.50;99.90
75321;DHT22;68337;52.196;5.660;2023-07-31T04:30:42;16.30;99.90
75321;DHT22;68337;52.196;5.660;2023-07-31T04:33:08;16.30;99.90
75321;DHT22;68337;52.196;5.660;2023-07-31T04:35:34;16.30;99.90
75321;DHT22;68337;52.196;5.660;2023-07-31T04:38:00;16.30;99.90
75321;DHT22;68337;52.196;5.660;2023-07-31T04:40:25;16.40;99.90
75321;DHT22;68337;52.196;5.660;2023-07-31T04:42:51;16.40;99.90
75321;DHT22;68337;52.196;5.660;2023-07-31T04:45:17;16.40;99.90
75321;DHT22;68337;52.196;5.660;2023-07-31T04:47:43;16.40;99.90
75321;DHT22;68337;52.196;5.660;2023-07-31T04:50:09;16.40;99.90
75321;DHT22;68337;52.196;5.660;2023-07-31T04:52:35;16.40;99.90
75321;DHT22;68337;52.196;5.660;2023-07-31T04:55:01;16.40;99.90
75321;DHT22;68337;52.196;5.660;2023-07-31T04:57:26;16.50;99.90
75321;DHT22;68337;52.196;5.660;2023-07-31T04:59:52;16.40;99.90
75321;DHT22;68337;52.196;5.660;2023-07-31T05:02:18;16.30;99.90
75321;DHT22;68337;52.196;5.660;2023-07-31T05:04:43;16.30;99.90
75321;DHT22;68337;52.196;5.660;2023-07-31T05:07:09;16.40;99.90
75321;DHT22;68337;52.196;5.660;2023-07-31T05:09:35;16.50;99.90
75321;DHT22;68337;52.196;5.660;2023-07-31T05:12:01;16.30;99.90
75321;DHT22;68337;52.196;5.660;2023-07-31T05:14:26;16.30;99.90
75321;DHT22;68337;52.196;5.660;2023-07-31T05:16:52;16.30;99.90
75321;DHT22;68337;52.196;5.660;2023-07-31T05:19:18;16.20;99.90
75321;DHT22;68337;52.196;5.660;2023-07-31T05:21:44;16.30;99.90
75321;DHT22;68337;52.196;5.660;2023-07-31T05:24:10;16.30;99.90
75321;DHT22;68337;52.196;5.660;2023-07-31T05:26:36;16.30;99.90
75321;DHT22;68337;52.196;5.660;2023-07-31T05:29:03;16.30;99.90
75321;DHT22;68337;52.196;5.660;2023-07-31T05:31:29;16.20;99.90
75321;DHT22;68337;52.196;5.660;2023-07-31T05:33:55;16.20;99.90
75321;DHT22;68337;52.196;5.660;2023-07-31T05:36:20;16.20;99.90
75321;DHT22;68337;52.196;5.660;2023-07-31T05:38:46;16.30;99.90
75321;DHT22;68337;52.196;5.660;2023-07-31T05:41:12;16.20;99.90
75321;DHT22;68337;52.196;5.660;2023-07-31T05:43:38;16.20;99.90
75321;DHT22;68337;52.196;5.660;2023-07-31T05:46:04;16.20;99.90
75321;DHT22;68337;52.196;5.660;2023-07-31T05:48:30;16.30;99.90
75321;DHT22;68337;52.196;5.660;2023-07-31T05:50:55;16.20;99.90
75321;DHT22;68337;52.196;5.660;2023-07-31T05:53:21;16.10;99.90
75321;DHT22;68337;52.196;5.660;2023-07-31T05:55:47;16.20;99.90
75321;DHT22;68337;52.196;5.660;2023-07-31T05:58:13;16.10;99.90
75321;DHT22;68337;52.196;5.660;2023-07-31T06:00:38;16.10;99.90
75321;DHT22;68337;52.196;5.660;2023-07-31T06:03:04;16.20;99.90
75321;DHT22;68337;52.196;5.660;2023-07-31T06:05:30;16.10;99.90
75321;DHT22;68337;52.196;5.660;2023-07-31T06:07:57;16.20;99.90
75321;DHT22;68337;52.196;5.660;2023-07-31T06:10:22;16.20;99.90
75321;DHT22;68337;52.196;5.660;2023-07-31T06:12:48;16.20;99.90
75321;DHT22;68337;52.196;5.660;2023-07-31T06:15:14;16.20;99.90
75321;DHT22;68337;52.196;5.660;2023-07-31T06:17:40;16.20;99.90
75321;DHT22;68337;52.196;5.660;2023-07-31T06:20:07;16.20;99.90
75321;DHT22;68337;52.196;5.660;2023-07-31T06:22:33;16.30;99.90
75321;DHT22;68337;52.196;5.660;2023-07-31T06:24:59;16.20;99.90
75321;DHT22;68337;52.196;5.660;2023-07-31T06:27:25;16.30;99.90
75321;DHT22;68337;52.196;5.660;2023-07-31T06:29:51;16.30;99.90
75321;DHT22;68337;52.196;5.660;2023-07-31T06:32:16;16.40;99.90
75321;DHT22;68337;52.196;5.660;2023-07-31T06:34:42;16.30;99.90
75321;DHT22;68337;52.196;5.660;2023-07-31T06:37:08;16.40;99.90
75321;DHT22;68337;52.196;5.660;2023-07-31T06:39:34;16.50;99.90
75321;DHT22;68337;52.196;5.660;2023-07-31T06:42:00;16.40;99.90
75321;DHT22;68337;52.196;5.660;2023-07-31T06:44:27;16.40;99.90
75321;DHT22;68337;52.196;5.660;2023-07-31T06:46:53;16.50;99.90
75321;DHT22;68337;52.196;5.660;2023-07-31T06:49:19;16.50;99.90
75321;DHT22;68337;52.196;5.660;2023-07-31T06:51:44;16.50;99.90
75321;DHT22;68337;52.196;5.660;2023-07-31T06:54:10;16.50;99.90
75321;DHT22;68337;52.196;5.660;2023-07-31T06:56:36;16.50;99.90
75321;DHT22;68337;52.196;5.660;2023-07-31T06:59:03;16.50;99.90
75321;DHT22;68337;52.196;5.660;2023-07-31T07:01:29;16.50;99.90
75321;DHT22;68337;52.196;5.660;2023-07-31T07:03:55;16.60;99.90
75321;DHT22;68337;52.196;5.660;2023-07-31T07:06:22;16.60;99.90
75321;DHT22;68337;52.196;5.660;2023-07-31T07:08:48;16.70;99.90
75321;DHT22;68337;52.196;5.660;2023-07-31T07:11:14;16.70;99.90
75321;DHT22;68337;52.196;5.660;2023-07-31T07:13:40;16.60;99.90
75321;DHT22;68337;52.196;5.660;2023-07-31T07:16:06;16.80;99.90
75321;DHT22;68337;52.196;5.660;2023-07-31T07:18:32;16.60;99.90
75321;DHT22;68337;52.196;5.660;2023-07-31T07:20:58;16.80;99.90
75321;DHT22;68337;52.196;5.660;2023-07-31T07:23:24;16.80;99.90
75321;DHT22;68337;52.196;5.660;2023-07-31T07:25:50;16.70;99.90
75321;DHT22;68337;52.196;5.660;2023-07-31T07:28:17;16.80;99.90
75321;DHT22;68337;52.196;5.660;2023-07-31T07:30:43;16.80;99.90
75321;DHT22;68337;52.196;5.660;2023-07-31T07:33:09;16.80;99.90
75321;DHT22;68337;52.196;5.660;2023-07-31T07:35:35;16.80;99.90
75321;DHT22;68337;52.196;5.660;2023-07-31T07:38:03;17.00;99.90
75321;DHT22;68337;52.196;5.660;2023-07-31T07:40:29;16.90;99.90
75321;DHT22;68337;52.196;5.660;2023-07-31T07:42:55;16.80;99.90
75321;DHT22;68337;52.196;5.660;2023-07-31T07:45:21;16.90;99.90
75321;DHT22;68337;52.196;5.660;2023-07-31T07:47:47;17.20;99.90
75321;DHT22;68337;52.196;5.660;2023-07-31T07:50:13;17.00;99.90
75321;DHT22;68337;52.196;5.660;2023-07-31T07:52:38;16.90;99.90
75321;DHT22;68337;52.196;5.660;2023-07-31T07:55:04;17.10;99.90
75321;DHT22;68337;52.196;5.660;2023-07-31T07:57:30;17.00;99.90
75321;DHT22;68337;52.196;5.660;2023-07-31T07:59:56;17.10;99.90
75321;DHT22;68337;52.196;5.660;2023-07-31T08:02:22;17.10;99.90
75321;DHT22;68337;52.196;5.660;2023-07-31T08:04:48;17.10;99.90
75321;DHT22;68337;52.196;5.660;2023-07-31T08:07:14;17.10;99.90
75321;DHT22;68337;52.196;5.660;2023-07-31T08:09:40;17.20;99.90
75321;DHT22;68337;52.196;5.660;2023-07-31T08:12:07;17.20;99.90
75321;DHT22;68337;52.196;5.660;2023-07-31T08:14:32;17.20;99.90
75321;DHT22;68337;52.196;5.660;2023-07-31T08:16:58;17.20;99.90
75321;DHT22;68337;52.196;5.660;2023-07-31T08:19:24;17.20;99.90
75321;DHT22;68337;52.196;5.660;2023-07-31T08:21:50;17.20;99.90
75321;DHT22;68337;52.196;5.660;2023-07-31T08:24:16;17.20;99.90
75321;DHT22;68337;52.196;5.660;2023-07-31T08:26:42;17.40;99.90
75321;DHT22;68337;52.196;5.660;2023-07-31T08:29:08;17.40;99.90
75321;DHT22;68337;52.196;5.660;2023-07-31T08:31:34;17.30;99.90
75321;DHT22;68337;52.196;5.660;2023-07-31T08:34:00;17.40;99.90
75321;DHT22;68337;52.196;5.660;2023-07-31T08:36:26;17.40;99.90
75321;DHT22;68337;52.196;5.660;2023-07-31T08:38:52;17.50;99.90
75321;DHT22;68337;52.196;5.660;2023-07-31T08:41:18;17.70;99.90
75321;DHT22;68337;52.196;5.660;2023-07-31T08:43:47;17.50;99.90
75321;DHT22;68337;52.196;5.660;2023-07-31T08:46:15;18.10;99.90
75321;DHT22;68337;52.196;5.660;2023-07-31T08:48:44;17.60;99.90
75321;DHT22;68337;52.196;5.660;2023-07-31T08:51:14;17.60;99.90
75321;DHT22;68337;52.196;5.660;2023-07-31T08:53:40;17.60;99.90
75321;DHT22;68337;52.196;5.660;2023-07-31T08:56:07;17.50;99.90
75321;DHT22;68337;52.196;5.660;2023-07-31T08:58:35;17.60;99.90
75321;DHT22;68337;52.196;5.660;2023-07-31T09:01:04;17.70;99.90
75321;DHT22;68337;52.196;5.660;2023-07-31T09:03:36;17.70;99.90
75321;DHT22;68337;52.196;5.660;2023-07-31T09:06:03;17.80;99.90
75321;DHT22;68337;52.196;5.660;2023-07-31T09:08:35;17.80;99.90
75321;DHT22;68337;52.196;5.660;2023-07-31T09:11:02;17.90;99.90
75321;DHT22;68337;52.196;5.660;2023-07-31T09:13:31;17.90;99.90
75321;DHT22;68337;52.196;5.660;2023-07-31T09:16:00;17.80;99.90
75321;DHT22;68337;52.196;5.660;2023-07-31T09:18:31;17.90;99.90
75321;DHT22;68337;52.196;5.660;2023-07-31T09:21:04;17.90;99.90
75321;DHT22;68337;52.196;5.660;2023-07-31T09:23:44;18.00;99.90
75321;DHT22;68337;52.196;5.660;2023-07-31T09:26:12;18.00;99.90
75321;DHT22;68337;52.196;5.660;2023-07-31T09:28:56;18.00;99.90
75321;DHT22;68337;52.196;5.660;2023-07-31T09:31:43;17.90;99.90
75321;DHT22;68337;52.196;5.660;2023-07-31T09:34:11;18.10;99.90
75321;DHT22;68337;52.196;5.660;2023-07-31T09:36:41;18.00;99.90
75321;DHT22;68337;52.196;5.660;2023-07-31T09:39:12;18.10;99.90
75321;DHT22;68337;52.196;5.660;2023-07-31T09:41:39;18.30;99.90
75321;DHT22;68337;52.196;5.660;2023-07-31T09:44:06;18.30;99.90
75321;DHT22;68337;52.196;5.660;2023-07-31T09:46:35;18.40;99.90
75321;DHT22;68337;52.196;5.660;2023-07-31T09:49:11;18.20;99.90
75321;DHT22;68337;52.196;5.660;2023-07-31T09:51:38;18.20;99.90
75321;DHT22;68337;52.196;5.660;2023-07-31T09:54:10;18.10;99.90
75321;DHT22;68337;52.196;5.660;2023-07-31T09:56:41;18.20;99.90
75321;DHT22;68337;52.196;5.660;2023-07-31T09:59:08;18.20;99.90
75321;DHT22;68337;52.196;5.660;2023-07-31T10:01:36;18.30;99.90
75321;DHT22;68337;52.196;5.660;2023-07-31T10:04:04;18.40;99.90
75321;DHT22;68337;52.196;5.660;2023-07-31T10:06:32;18.40;99.90
75321;DHT22;68337;52.196;5.660;2023-07-31T10:08:59;18.40;99.90
75321;DHT22;68337;52.196;5.660;2023-07-31T10:11:26;18.60;99.90
75321;DHT22;68337;52.196;5.660;2023-07-31T10:13:53;18.60;99.90
75321;DHT22;68337;52.196;5.660;2023-07-31T10:16:21;18.60;99.90
75321;DHT22;68337;52.196;5.660;2023-07-31T10:18:48;18.60;99.90
75321;DHT22;68337;52.196;5.660;2023-07-31T10:21:17;18.70;99.90
75321;DHT22;68337;52.196;5.660;2023-07-31T10:23:53;18.60;99.90
75321;DHT22;68337;52.196;5.660;2023-07-31T10:26:20;18.60;99.90
75321;DHT22;68337;52.196;5.660;2023-07-31T10:28:49;18.80;99.90
75321;DHT22;68337;52.196;5.660;2023-07-31T10:31:19;18.70;99.90
75321;DHT22;68337;52.196;5.660;2023-07-31T10:33:45;18.70;99.90
75321;DHT22;68337;52.196;5.660;2023-07-31T10:36:18;18.70;99.90
75321;DHT22;68337;52.196;5.660;2023-07-31T10:38:44;18.70;99.90
75321;DHT22;68337;52.196;5.660;2023-07-31T10:41:10;18.80;99.90
75321;DHT22;68337;52.196;5.660;2023-07-31T10:43:37;19.00;99.90
75321;DHT22;68337;52.196;5.660;2023-07-31T10:46:12;19.00;99.90
75321;DHT22;68337;52.196;5.660;2023-07-31T10:48:40;18.90;99.90
75321;DHT22;68337;52.196;5.660;2023-07-31T10:51:10;18.80;99.90
75321;DHT22;68337;52.196;5.660;2023-07-31T10:53:38;18.80;99.90
75321;DHT22;68337;52.196;5.660;2023-07-31T10:56:07;18.90;99.90
75321;DHT22;68337;52.196;5.660;2023-07-31T10:58:33;18.90;99.90
75321;DHT22;68337;52.196;5.660;2023-07-31T11:01:04;19.10;99.90
75321;DHT22;68337;52.196;5.660;2023-07-31T11:03:47;19.10;99.90
75321;DHT22;68337;52.196;5.660;2023-07-31T11:06:15;19.00;99.90
75321;DHT22;68337;52.196;5.660;2023-07-31T11:08:49;19.00;99.90
75321;DHT22;68337;52.196;5.660;2023-07-31T11:11:17;19.00;99.90
75321;DHT22;68337;52.196;5.660;2023-07-31T11:13:47;19.10;99.90
75321;DHT22;68337;52.196;5.660;2023-07-31T11:16:19;19.10;99.90
75321;DHT22;68337;52.196;5.660;2023-07-31T11:18:46;19.20;99.90
75321;DHT22;68337;52.196;5.660;2023-07-31T11:21:15;19.10;99.90
75321;DHT22;68337;52.196;5.660;2023-07-31T11:23:45;19.00;99.90
75321;DHT22;68337;52.196;5.660;2023-07-31T11:26:11;19.00;99.90
75321;DHT22;68337;52.196;5.660;2023-07-31T11:28:37;18.90;99.90
75321;DHT22;68337;52.196;5.660;2023-07-31T11:31:04;19.00;99.90
75321;DHT22;68337;52.196;5.660;2023-07-31T11:33:30;19.00;99.90
75321;DHT22;68337;52.196;5.660;2023-07-31T11:35:56;19.10;99.90
75321;DHT22;68337;52.196;5.660;2023-07-31T11:38:28;19.00;99.90
75321;DHT22;68337;52.196;5.660;2023-07-31T11:40:59;19.10;99.90
75321;DHT22;68337;52.196;5.660;2023-07-31T11:43:25;19.20;99.90
75321;DHT22;68337;52.196;5.660;2023-07-31T11:45:56;19.10;99.90
75321;DHT22;68337;52.196;5.660;2023-07-31T11:48:34;19.10;99.90
75321;DHT22;68337;52.196;5.660;2023-07-31T11:51:09;19.00;99.90
75321;DHT22;68337;52.196;5.660;2023-07-31T11:53:51;19.20;99.90
75321;DHT22;68337;52.196;5.660;2023-07-31T11:56:19;19.10;99.90
75321;DHT22;68337;52.196;5.660;2023-07-31T11:58:51;19.20;99.90
75321;DHT22;68337;52.196;5.660;2023-07-31T12:01:19;19.00;99.90
75321;DHT22;68337;52.196;5.660;2023-07-31T12:03:46;19.00;99.90
75321;DHT22;68337;52.196;5.660;2023-07-31T12:06:12;18.90;99.90
75321;DHT22;68337;52.196;5.660;2023-07-31T12:08:38;18.90;99.90
75321;DHT22;68337;52.196;5.660;2023-07-31T12:11:05;19.00;99.90
75321;DHT22;68337;52.196;5.660;2023-07-31T12:13:32;18.80;99.90
75321;DHT22;68337;52.196;5.660;2023-07-31T12:16:00;18.90;99.90
75321;DHT22;68337;52.196;5.660;2023-07-31T12:18:30;18.90;99.90
75321;DHT22;68337;52.196;5.660;2023-07-31T12:21:01;18.90;99.90
75321;DHT22;68337;52.196;5.660;2023-07-31T12:23:37;18.70;99.90
75321;DHT22;68337;52.196;5.660;2023-07-31T12:26:12;18.80;99.90
75321;DHT22;68337;52.196;5.660;2023-07-31T12:28:49;18.80;99.90
75321;DHT22;68337;52.196;5.660;2023-07-31T12:31:18;18.80;99.90
75321;DHT22;68337;52.196;5.660;2023-07-31T12:33:45;18.70;99.90
75321;DHT22;68337;52.196;5.660;2023-07-31T12:36:16;18.90;99.90
75321;DHT22;68337;52.196;5.660;2023-07-31T12:38:42;18.90;99.90
75321;DHT22;68337;52.196;5.660;2023-07-31T12:41:08;18.90;99.90
75321;DHT22;68337;52.196;5.660;2023-07-31T12:43:39;18.90;99.90
75321;DHT22;68337;52.196;5.660;2023-07-31T12:46:05;19.10;99.90
75321;DHT22;68337;52.196;5.660;2023-07-31T12:48:33;19.00;99.90
75321;DHT22;68337;52.196;5.660;2023-07-31T12:50:59;18.90;99.90
75321;DHT22;68337;52.196;5.660;2023-07-31T12:53:25;19.10;99.90
75321;DHT22;68337;52.196;5.660;2023-07-31T12:55:51;19.10;99.90
75321;DHT22;68337;52.196;5.660;2023-07-31T12:58:16;19.10;99.90
75321;DHT22;68337;52.196;5.660;2023-07-31T13:00:42;19.10;99.90
75321;DHT22;68337;52.196;5.660;2023-07-31T13:03:08;19.00;99.90
75321;DHT22;68337;52.196;5.660;2023-07-31T13:05:34;19.00;99.90
75321;DHT22;68337;52.196;5.660;2023-07-31T13:08:00;19.10;99.90
75321;DHT22;68337;52.196;5.660;2023-07-31T13:10:27;19.10;99.90
75321;DHT22;68337;52.196;5.660;2023-07-31T13:12:54;19.10;99.90
75321;DHT22;68337;52.196;5.660;2023-07-31T13:15:20;19.30;99.90
75321;DHT22;68337;52.196;5.660;2023-07-31T13:17:46;19.40;99.90
75321;DHT22;68337;52.196;5.660;2023-07-31T13:20:12;19.40;99.90
75321;DHT22;68337;52.196;5.660;2023-07-31T13:22:38;19.30;99.90
75321;DHT22;68337;52.196;5.660;2023-07-31T13:25:04;19.40;99.90
75321;DHT22;68337;52.196;5.660;2023-07-31T13:27:30;19.40;99.90
75321;DHT22;68337;52.196;5.660;2023-07-31T13:29:56;19.30;99.90
75321;DHT22;68337;52.196;5.660;2023-07-31T13:32:22;19.40;99.90
75321;DHT22;68337;52.196;5.660;2023-07-31T13:34:48;19.40;99.90
75321;DHT22;68337;52.196;5.660;2023-07-31T13:37:15;19.30;99.90
75321;DHT22;68337;52.196;5.660;2023-07-31T13:39:41;19.30;99.90
75321;DHT22;68337;52.196;5.660;2023-07-31T13:42:08;19.30;99.90
75321;DHT22;68337;52.196;5.660;2023-07-31T13:44:38;19.40;99.90
75321;DHT22;68337;52.196;5.660;2023-07-31T13:47:03;19.30;99.90
75321;DHT22;68337;52.196;5.660;2023-07-31T13:49:29;19.50;99.90
75321;DHT22;68337;52.196;5.660;2023-07-31T13:51:55;19.30;99.90
75321;DHT22;68337;52.196;5.660;2023-07-31T13:54:23;19.40;99.90
75321;DHT22;68337;52.196;5.660;2023-07-31T13:56:49;19.30;99.90
75321;DHT22;68337;52.196;5.660;2023-07-31T13:59:15;19.30;99.90
75321;DHT22;68337;52.196;5.660;2023-07-31T14:01:45;19.30;99.90
75321;DHT22;68337;52.196;5.660;2023-07-31T14:04:11;19.20;99.90
75321;DHT22;68337;52.196;5.660;2023-07-31T14:06:37;19.30;99.90
75321;DHT22;68337;52.196;5.660;2023-07-31T14:09:03;19.20;99.90
75321;DHT22;68337;52.196;5.660;2023-07-31T14:11:30;19.30;99.90
75321;DHT22;68337;52.196;5.660;2023-07-31T14:13:56;19.10;99.90
75321;DHT22;68337;52.196;5.660;2023-07-31T14:16:23;19.20;99.90
75321;DHT22;68337;52.196;5.660;2023-07-31T14:18:49;19.10;99.90
75321;DHT22;68337;52.196;5.660;2023-07-31T14:21:14;19.00;99.90
75321;DHT22;68337;52.196;5.660;2023-07-31T14:23:40;18.90;99.90
75321;DHT22;68337;52.196;5.660;2023-07-31T14:26:07;18.90;99.90
75321;DHT22;68337;52.196;5.660;2023-07-31T14:28:33;18.80;99.90
75321;DHT22;68337;52.196;5.660;2023-07-31T14:30:59;18.70;99.90
75321;DHT22;68337;52.196;5.660;2023-07-31T14:33:25;18.70;99.90
75321;DHT22;68337;52.196;5.660;2023-07-31T14:35:51;18.70;99.90
75321;DHT22;68337;52.196;5.660;2023-07-31T14:38:17;18.70;99.90
75321;DHT22;68337;52.196;5.660;2023-07-31T14:40:42;18.70;99.90
75321;DHT22;68337;52.196;5.660;2023-07-31T14:43:08;18.70;99.90
75321;DHT22;68337;52.196;5.660;2023-07-31T14:45:34;18.70;99.90
75321;DHT22;68337;52.196;5.660;2023-07-31T14:48:00;18.80;99.90
75321;DHT22;68337;52.196;5.660;2023-07-31T14:50:26;18.90;99.90
75321;DHT22;68337;52.196;5.660;2023-07-31T14:52:52;18.90;99.90
75321;DHT22;68337;52.196;5.660;2023-07-31T14:55:18;18.80;99.90
75321;DHT22;68337;52.196;5.660;2023-07-31T14:57:44;18.90;99.90
75321;DHT22;68337;52.196;5.660;2023-07-31T15:00:10;18.90;99.90
75321;DHT22;68337;52.196;5.660;2023-07-31T15:02:39;18.80;99.90
75321;DHT22;68337;52.196;5.660;2023-07-31T15:05:06;18.80;99.90
75321;DHT22;68337;52.196;5.660;2023-07-31T15:07:33;18.80;99.90
75321;DHT22;68337;52.196;5.660;2023-07-31T15:09:59;19.00;99.90
75321;DHT22;68337;52.196;5.660;2023-07-31T15:12:26;18.80;99.90
75321;DHT22;68337;52.196;5.660;2023-07-31T15:14:52;18.80;99.90
75321;DHT22;68337;52.196;5.660;2023-07-31T15:17:18;18.70;99.90
75321;DHT22;68337;52.196;5.660;2023-07-31T15:19:44;18.60;99.90
75321;DHT22;68337;52.196;5.660;2023-07-31T15:22:10;18.70;99.90
75321;DHT22;68337;52.196;5.660;2023-07-31T15:24:36;18.80;99.90
75321;DHT22;68337;52.196;5.660;2023-07-31T15:27:01;18.70;99.90
75321;DHT22;68337;52.196;5.660;2023-07-31T15:29:29;18.70;99.90
75321;DHT22;68337;52.196;5.660;2023-07-31T15:31:55;19.10;99.90
75321;DHT22;68337;52.196;5.660;2023-07-31T15:34:21;18.60;99.90